sensor_id;sensor_type;location;lat;lon;timestamp;P1;durP1;ratioP1;P2;durP2;ratioP2
35993;SDS011;22066;54.274;18.578;2022-09-27T00:00:59;14.15;;;8.13;;
35993;SDS011;22066;54.274;18.578;2022-09-27T00:03:25;11.75;;;5.95;;
35993;SDS011;22066;54.274;18.578;2022-09-27T00:06:08;12.48;;;6.32;;
35993;SDS011;22066;54.274;18.578;2022-09-27T00:08:35;14.45;;;6.93;;
35993;SDS011;22066;54.274;18.578;2022-09-27T00:11:16;14.70;;;6.43;;
35993;SDS011;22066;54.274;18.578;2022-09-27T00:13:43;13.82;;;6.85;;
35993;SDS011;22066;54.274;18.578;2022-09-27T00:16:09;10.52;;;5.95;;
35993;SDS011;22066;54.274;18.578;2022-09-27T00:18:35;17.85;;;7.90;;
35993;SDS011;22066;54.274;18.578;2022-09-27T00:21:07;13.40;;;7.43;;
35993;SDS011;22066;54.274;18.578;2022-09-27T00:23:34;16.00;;;7.45;;
35993;SDS011;22066;54.274;18.578;2022-09-27T00:26:00;12.50;;;7.38;;
35993;SDS011;22066;54.274;18.578;2022-09-27T00:28:26;17.00;;;6.45;;
35993;SDS011;22066;54.274;18.578;2022-09-27T00:30:52;14.27;;;7.28;;
35993;SDS011;22066;54.274;18.578;2022-09-27T00:33:18;14.50;;;7.78;;
35993;SDS011;22066;54.274;18.578;2022-09-27T00:35:45;13.85;;;6.78;;
35993;SDS011;22066;54.274;18.578;2022-09-27T00:38:11;14.63;;;7.05;;
35993;SDS011;22066;54.274;18.578;2022-09-27T00:40:38;17.83;;;7.28;;
35993;SDS011;22066;54.274;18.578;2022-09-27T00:43:17;14.98;;;6.70;;
35993;SDS011;22066;54.274;18.578;2022-09-27T00:45:45;15.23;;;8.00;;
35993;SDS011;22066;54.274;18.578;2022-09-27T00:48:12;15.85;;;7.80;;
35993;SDS011;22066;54.274;18.578;2022-09-27T00:50:41;14.43;;;8.15;;
35993;SDS011;22066;54.274;18.578;2022-09-27T00:55:38;15.55;;;7.65;;
35993;SDS011;22066;54.274;18.578;2022-09-27T00:58:05;14.43;;;6.95;;
35993;SDS011;22066;54.274;18.578;2022-09-27T01:00:32;14.65;;;6.85;;
35993;SDS011;22066;54.274;18.578;2022-09-27T01:02:59;17.35;;;7.72;;
35993;SDS011;22066;54.274;18.578;2022-09-27T01:05:26;15.85;;;7.72;;
35993;SDS011;22066;54.274;18.578;2022-09-27T01:07:53;21.20;;;7.93;;
35993;SDS011;22066;54.274;18.578;2022-09-27T01:10:20;15.77;;;7.80;;
35993;SDS011;22066;54.274;18.578;2022-09-27T01:16:36;16.02;;;7.55;;
35993;SDS011;22066;54.274;18.578;2022-09-27T01:33:47;12.00;;;6.70;;
35993;SDS011;22066;54.274;18.578;2022-09-27T01:43:47;16.98;;;7.65;;
35993;SDS011;22066;54.274;18.578;2022-09-27T01:46:22;13.38;;;6.60;;
35993;SDS011;22066;54.274;18.578;2022-09-27T01:48:50;13.32;;;7.72;;
35993;SDS011;22066;54.274;18.578;2022-09-27T01:54:01;14.82;;;6.55;;
35993;SDS011;22066;54.274;18.578;2022-09-27T01:56:36;11.55;;;5.95;;
35993;SDS011;22066;54.274;18.578;2022-09-27T02:01:34;13.60;;;6.80;;
35993;SDS011;22066;54.274;18.578;2022-09-27T02:04:01;14.23;;;7.07;;
35993;SDS011;22066;54.274;18.578;2022-09-27T02:06:35;12.40;;;6.20;;
35993;SDS011;22066;54.274;18.578;2022-09-27T02:09:05;13.15;;;6.05;;
35993;SDS011;22066;54.274;18.578;2022-09-27T02:11:34;12.07;;;6.85;;
35993;SDS011;22066;54.274;18.578;2022-09-27T02:14:17;14.77;;;6.18;;
35993;SDS011;22066;54.274;18.578;2022-09-27T02:16:48;15.23;;;7.20;;
35993;SDS011;22066;54.274;18.578;2022-09-27T02:21:53;13.68;;;6.47;;
35993;SDS011;22066;54.274;18.578;2022-09-27T02:24:22;12.85;;;6.53;;
35993;SDS011;22066;54.274;18.578;2022-09-27T02:26:51;12.90;;;6.65;;
35993;SDS011;22066;54.274;18.578;2022-09-27T02:29:23;10.80;;;6.22;;
35993;SDS011;22066;54.274;18.578;2022-09-27T02:31:52;13.63;;;7.40;;
35993;SDS011;22066;54.274;18.578;2022-09-27T02:34:19;13.80;;;6.88;;
35993;SDS011;22066;54.274;18.578;2022-09-27T02:39:13;14.65;;;6.20;;
35993;SDS011;22066;54.274;18.578;2022-09-27T02:41:39;11.88;;;5.95;;
35993;SDS011;22066;54.274;18.578;2022-09-27T02:44:06;11.00;;;6.38;;
35993;SDS011;22066;54.274;18.578;2022-09-27T02:56:43;12.32;;;5.95;;
35993;SDS011;22066;54.274;18.578;2022-09-27T03:04:13;10.48;;;6.25;;
35993;SDS011;22066;54.274;18.578;2022-09-27T03:06:41;12.13;;;5.47;;
35993;SDS011;22066;54.274;18.578;2022-09-27T03:09:19;10.20;;;5.55;;
35993;SDS011;22066;54.274;18.578;2022-09-27T03:11:45;11.23;;;5.70;;
35993;SDS011;22066;54.274;18.578;2022-09-27T03:14:11;11.07;;;5.38;;
35993;SDS011;22066;54.274;18.578;2022-09-27T03:16:37;12.10;;;5.38;;
35993;SDS011;22066;54.274;18.578;2022-09-27T03:19:03;9.70;;;5.22;;
35993;SDS011;22066;54.274;18.578;2022-09-27T03:21:29;12.27;;;5.68;;
35993;SDS011;22066;54.274;18.578;2022-09-27T03:23:55;12.88;;;5.75;;
35993;SDS011;22066;54.274;18.578;2022-09-27T03:26:21;10.73;;;5.43;;
35993;SDS011;22066;54.274;18.578;2022-09-27T03:28:47;10.70;;;5.72;;
35993;SDS011;22066;54.274;18.578;2022-09-27T03:31:13;11.23;;;5.97;;
35993;SDS011;22066;54.274;18.578;2022-09-27T03:33:39;11.57;;;6.32;;
35993;SDS011;22066;54.274;18.578;2022-09-27T03:36:06;9.57;;;5.15;;
35993;SDS011;22066;54.274;18.578;2022-09-27T03:38:32;14.25;;;5.93;;
35993;SDS011;22066;54.274;18.578;2022-09-27T03:40:58;13.45;;;5.80;;
35993;SDS011;22066;54.274;18.578;2022-09-27T03:43:24;14.48;;;5.88;;
35993;SDS011;22066;54.274;18.578;2022-09-27T03:45:50;12.82;;;5.40;;
35993;SDS011;22066;54.274;18.578;2022-09-27T03:48:16;11.73;;;5.90;;
35993;SDS011;22066;54.274;18.578;2022-09-27T03:50:42;13.95;;;6.30;;
35993;SDS011;22066;54.274;18.578;2022-09-27T03:53:08;9.63;;;5.10;;
35993;SDS011;22066;54.274;18.578;2022-09-27T03:55:34;9.43;;;5.13;;
35993;SDS011;22066;54.274;18.578;2022-09-27T03:58:00;9.63;;;5.00;;
35993;SDS011;22066;54.274;18.578;2022-09-27T04:00:26;9.88;;;5.43;;
35993;SDS011;22066;54.274;18.578;2022-09-27T04:02:52;12.20;;;6.15;;
35993;SDS011;22066;54.274;18.578;2022-09-27T04:05:18;14.75;;;6.15;;
35993;SDS011;22066;54.274;18.578;2022-09-27T04:07:47;12.00;;;5.50;;
35993;SDS011;22066;54.274;18.578;2022-09-27T04:10:14;10.60;;;4.80;;
35993;SDS011;22066;54.274;18.578;2022-09-27T04:12:40;11.85;;;5.82;;
35993;SDS011;22066;54.274;18.578;2022-09-27T04:15:07;14.40;;;5.72;;
35993;SDS011;22066;54.274;18.578;2022-09-27T04:17:36;11.85;;;5.53;;
35993;SDS011;22066;54.274;18.578;2022-09-27T04:20:03;11.93;;;5.63;;
35993;SDS011;22066;54.274;18.578;2022-09-27T04:22:29;13.95;;;5.65;;
35993;SDS011;22066;54.274;18.578;2022-09-27T04:24:55;16.02;;;6.80;;
35993;SDS011;22066;54.274;18.578;2022-09-27T04:27:21;11.52;;;6.43;;
35993;SDS011;22066;54.274;18.578;2022-09-27T04:29:47;12.63;;;6.32;;
35993;SDS011;22066;54.274;18.578;2022-09-27T04:32:13;12.60;;;5.63;;
35993;SDS011;22066;54.274;18.578;2022-09-27T04:34:39;11.88;;;6.05;;
35993;SDS011;22066;54.274;18.578;2022-09-27T04:37:24;9.38;;;5.43;;
35993;SDS011;22066;54.274;18.578;2022-09-27T04:39:50;11.07;;;5.75;;
35993;SDS011;22066;54.274;18.578;2022-09-27T04:42:16;11.90;;;5.65;;
35993;SDS011;22066;54.274;18.578;2022-09-27T04:44:43;13.30;;;6.82;;
35993;SDS011;22066;54.274;18.578;2022-09-27T04:47:09;13.35;;;5.50;;
35993;SDS011;22066;54.274;18.578;2022-09-27T04:49:35;15.10;;;5.93;;
35993;SDS011;22066;54.274;18.578;2022-09-27T04:52:02;15.23;;;6.65;;
35993;SDS011;22066;54.274;18.578;2022-09-27T04:54:29;14.52;;;6.30;;
35993;SDS011;22066;54.274;18.578;2022-09-27T04:56:55;12.80;;;5.97;;
35993;SDS011;22066;54.274;18.578;2022-09-27T04:59:21;10.63;;;5.50;;
35993;SDS011;22066;54.274;18.578;2022-09-27T05:01:47;15.55;;;7.95;;
35993;SDS011;22066;54.274;18.578;2022-09-27T05:04:14;13.85;;;6.82;;
35993;SDS011;22066;54.274;18.578;2022-09-27T05:06:40;12.45;;;6.57;;
35993;SDS011;22066;54.274;18.578;2022-09-27T05:09:06;10.30;;;5.90;;
35993;SDS011;22066;54.274;18.578;2022-09-27T05:11:32;19.25;;;5.18;;
35993;SDS011;22066;54.274;18.578;2022-09-27T05:14:01;18.92;;;5.97;;
35993;SDS011;22066;54.274;18.578;2022-09-27T05:16:27;15.77;;;6.47;;
35993;SDS011;22066;54.274;18.578;2022-09-27T05:18:54;14.77;;;5.60;;
35993;SDS011;22066;54.274;18.578;2022-09-27T05:21:20;13.50;;;6.60;;
35993;SDS011;22066;54.274;18.578;2022-09-27T05:23:46;13.65;;;5.63;;
35993;SDS011;22066;54.274;18.578;2022-09-27T05:26:13;11.90;;;6.13;;
35993;SDS011;22066;54.274;18.578;2022-09-27T05:28:38;11.43;;;5.88;;
35993;SDS011;22066;54.274;18.578;2022-09-27T05:31:08;19.38;;;6.95;;
35993;SDS011;22066;54.274;18.578;2022-09-27T05:33:35;16.40;;;6.32;;
35993;SDS011;22066;54.274;18.578;2022-09-27T05:36:01;14.23;;;7.75;;
35993;SDS011;22066;54.274;18.578;2022-09-27T05:38:28;31.30;;;11.27;;
35993;SDS011;22066;54.274;18.578;2022-09-27T05:40:54;51.13;;;11.05;;
35993;SDS011;22066;54.274;18.578;2022-09-27T05:43:20;72.65;;;11.25;;
35993;SDS011;22066;54.274;18.578;2022-09-27T05:45:47;72.57;;;13.57;;
35993;SDS011;22066;54.274;18.578;2022-09-27T05:48:15;43.07;;;11.13;;
35993;SDS011;22066;54.274;18.578;2022-09-27T05:50:41;63.40;;;11.02;;
35993;SDS011;22066;54.274;18.578;2022-09-27T05:53:08;130.95;;;14.23;;
35993;SDS011;22066;54.274;18.578;2022-09-27T05:55:34;89.97;;;13.25;;
35993;SDS011;22066;54.274;18.578;2022-09-27T05:58:01;141.18;;;14.27;;
35993;SDS011;22066;54.274;18.578;2022-09-27T06:00:28;68.82;;;12.32;;
35993;SDS011;22066;54.274;18.578;2022-09-27T06:02:54;57.45;;;10.23;;
35993;SDS011;22066;54.274;18.578;2022-09-27T06:05:21;74.63;;;12.18;;
35993;SDS011;22066;54.274;18.578;2022-09-27T06:07:47;64.90;;;10.80;;
35993;SDS011;22066;54.274;18.578;2022-09-27T06:10:14;94.75;;;11.65;;
35993;SDS011;22066;54.274;18.578;2022-09-27T06:12:40;97.80;;;11.82;;
35993;SDS011;22066;54.274;18.578;2022-09-27T06:15:06;67.45;;;11.73;;
35993;SDS011;22066;54.274;18.578;2022-09-27T06:17:33;61.28;;;11.07;;
35993;SDS011;22066;54.274;18.578;2022-09-27T06:19:59;72.28;;;13.02;;
35993;SDS011;22066;54.274;18.578;2022-09-27T06:22:25;37.58;;;10.70;;
35993;SDS011;22066;54.274;18.578;2022-09-27T06:24:51;47.95;;;11.52;;
35993;SDS011;22066;54.274;18.578;2022-09-27T06:27:17;70.72;;;14.13;;
35993;SDS011;22066;54.274;18.578;2022-09-27T06:29:43;48.80;;;11.73;;
35993;SDS011;22066;54.274;18.578;2022-09-27T06:32:10;41.03;;;12.38;;
35993;SDS011;22066;54.274;18.578;2022-09-27T06:34:36;21.88;;;11.63;;
35993;SDS011;22066;54.274;18.578;2022-09-27T06:37:03;29.90;;;11.63;;
35993;SDS011;22066;54.274;18.578;2022-09-27T06:39:29;34.15;;;11.75;;
35993;SDS011;22066;54.274;18.578;2022-09-27T06:41:58;58.20;;;14.98;;
35993;SDS011;22066;54.274;18.578;2022-09-27T06:44:24;40.47;;;13.10;;
35993;SDS011;22066;54.274;18.578;2022-09-27T06:46:51;49.28;;;15.35;;
35993;SDS011;22066;54.274;18.578;2022-09-27T06:49:17;52.20;;;14.07;;
35993;SDS011;22066;54.274;18.578;2022-09-27T06:51:44;40.60;;;15.38;;
35993;SDS011;22066;54.274;18.578;2022-09-27T06:54:10;49.35;;;15.40;;
35993;SDS011;22066;54.274;18.578;2022-09-27T06:56:36;46.15;;;16.33;;
35993;SDS011;22066;54.274;18.578;2022-09-27T06:59:02;62.90;;;16.85;;
35993;SDS011;22066;54.274;18.578;2022-09-27T07:01:46;36.55;;;15.25;;
35993;SDS011;22066;54.274;18.578;2022-09-27T07:04:13;49.33;;;16.38;;
35993;SDS011;22066;54.274;18.578;2022-09-27T07:06:40;42.08;;;16.23;;
35993;SDS011;22066;54.274;18.578;2022-09-27T07:09:06;43.10;;;19.00;;
35993;SDS011;22066;54.274;18.578;2022-09-27T07:11:35;39.25;;;17.38;;
35993;SDS011;22066;54.274;18.578;2022-09-27T07:14:02;39.22;;;17.48;;
35993;SDS011;22066;54.274;18.578;2022-09-27T07:16:28;47.83;;;20.38;;
35993;SDS011;22066;54.274;18.578;2022-09-27T07:18:55;44.70;;;18.50;;
35993;SDS011;22066;54.274;18.578;2022-09-27T07:21:22;45.47;;;17.98;;
35993;SDS011;22066;54.274;18.578;2022-09-27T07:23:48;49.67;;;20.75;;
35993;SDS011;22066;54.274;18.578;2022-09-27T07:26:14;51.42;;;21.98;;
35993;SDS011;22066;54.274;18.578;2022-09-27T07:28:41;45.50;;;19.77;;
35993;SDS011;22066;54.274;18.578;2022-09-27T07:31:07;51.72;;;22.13;;
35993;SDS011;22066;54.274;18.578;2022-09-27T07:33:33;50.22;;;22.95;;
35993;SDS011;22066;54.274;18.578;2022-09-27T07:36:00;54.08;;;23.70;;
35993;SDS011;22066;54.274;18.578;2022-09-27T07:38:31;50.50;;;24.30;;
35993;SDS011;22066;54.274;18.578;2022-09-27T07:40:57;47.33;;;22.02;;
35993;SDS011;22066;54.274;18.578;2022-09-27T07:43:23;50.58;;;23.63;;
35993;SDS011;22066;54.274;18.578;2022-09-27T07:45:49;51.95;;;21.48;;
35993;SDS011;22066;54.274;18.578;2022-09-27T07:48:15;43.75;;;21.30;;
35993;SDS011;22066;54.274;18.578;2022-09-27T07:50:42;45.03;;;21.05;;
35993;SDS011;22066;54.274;18.578;2022-09-27T07:53:08;45.22;;;21.10;;
35993;SDS011;22066;54.274;18.578;2022-09-27T07:55:37;47.88;;;22.20;;
35993;SDS011;22066;54.274;18.578;2022-09-27T07:58:03;47.40;;;21.08;;
35993;SDS011;22066;54.274;18.578;2022-09-27T08:00:30;45.13;;;21.35;;
35993;SDS011;22066;54.274;18.578;2022-09-27T08:02:57;45.53;;;21.90;;
35993;SDS011;22066;54.274;18.578;2022-09-27T08:05:23;45.63;;;20.50;;
35993;SDS011;22066;54.274;18.578;2022-09-27T08:07:53;43.03;;;21.08;;
35993;SDS011;22066;54.274;18.578;2022-09-27T08:10:20;50.33;;;25.63;;
35993;SDS011;22066;54.274;18.578;2022-09-27T08:12:49;47.88;;;23.30;;
35993;SDS011;22066;54.274;18.578;2022-09-27T08:15:15;51.72;;;24.55;;
35993;SDS011;22066;54.274;18.578;2022-09-27T08:17:41;43.75;;;22.60;;
35993;SDS011;22066;54.274;18.578;2022-09-27T08:20:07;45.88;;;21.67;;
35993;SDS011;22066;54.274;18.578;2022-09-27T08:22:38;46.33;;;22.17;;
35993;SDS011;22066;54.274;18.578;2022-09-27T08:25:04;44.53;;;22.58;;
35993;SDS011;22066;54.274;18.578;2022-09-27T08:27:30;42.85;;;22.00;;
35993;SDS011;22066;54.274;18.578;2022-09-27T08:29:56;49.83;;;24.00;;
35993;SDS011;22066;54.274;18.578;2022-09-27T08:32:23;41.17;;;22.05;;
35993;SDS011;22066;54.274;18.578;2022-09-27T08:34:49;40.55;;;21.25;;
35993;SDS011;22066;54.274;18.578;2022-09-27T08:37:15;45.75;;;22.40;;
35993;SDS011;22066;54.274;18.578;2022-09-27T08:39:41;44.15;;;21.98;;
35993;SDS011;22066;54.274;18.578;2022-09-27T08:47:21;39.05;;;20.63;;
35993;SDS011;22066;54.274;18.578;2022-09-27T08:52:19;37.47;;;19.58;;
35993;SDS011;22066;54.274;18.578;2022-09-27T08:54:47;32.50;;;18.27;;
35993;SDS011;22066;54.274;18.578;2022-09-27T08:57:13;34.97;;;19.20;;
35993;SDS011;22066;54.274;18.578;2022-09-27T08:59:46;32.50;;;17.92;;
35993;SDS011;22066;54.274;18.578;2022-09-27T09:02:17;31.05;;;17.30;;
35993;SDS011;22066;54.274;18.578;2022-09-27T09:04:44;33.25;;;18.25;;
35993;SDS011;22066;54.274;18.578;2022-09-27T09:07:23;30.13;;;16.42;;
35993;SDS011;22066;54.274;18.578;2022-09-27T09:15:10;28.65;;;16.20;;
35993;SDS011;22066;54.274;18.578;2022-09-27T09:17:46;30.55;;;16.85;;
35993;SDS011;22066;54.274;18.578;2022-09-27T09:20:18;28.73;;;15.63;;
35993;SDS011;22066;54.274;18.578;2022-09-27T09:33:15;31.88;;;15.90;;
35993;SDS011;22066;54.274;18.578;2022-09-27T09:35:49;28.98;;;17.20;;
35993;SDS011;22066;54.274;18.578;2022-09-27T09:38:20;29.27;;;15.07;;
35993;SDS011;22066;54.274;18.578;2022-09-27T09:40:48;29.17;;;14.88;;
35993;SDS011;22066;54.274;18.578;2022-09-27T09:43:19;29.63;;;15.65;;
35993;SDS011;22066;54.274;18.578;2022-09-27T09:45:47;24.77;;;14.90;;
35993;SDS011;22066;54.274;18.578;2022-09-27T09:50:51;26.00;;;14.90;;
35993;SDS011;22066;54.274;18.578;2022-09-27T09:55:50;26.15;;;14.45;;
35993;SDS011;22066;54.274;18.578;2022-09-27T10:00:47;21.58;;;12.43;;
35993;SDS011;22066;54.274;18.578;2022-09-27T10:03:14;22.52;;;11.95;;
35993;SDS011;22066;54.274;18.578;2022-09-27T10:05:43;24.73;;;12.75;;
35993;SDS011;22066;54.274;18.578;2022-09-27T10:08:12;18.60;;;10.75;;
35993;SDS011;22066;54.274;18.578;2022-09-27T10:10:41;21.23;;;12.10;;
35993;SDS011;22066;54.274;18.578;2022-09-27T10:13:09;21.08;;;12.00;;
35993;SDS011;22066;54.274;18.578;2022-09-27T10:15:38;19.13;;;10.70;;
35993;SDS011;22066;54.274;18.578;2022-09-27T10:18:04;17.10;;;11.13;;
35993;SDS011;22066;54.274;18.578;2022-09-27T10:23:03;17.55;;;10.18;;
35993;SDS011;22066;54.274;18.578;2022-09-27T10:25:47;18.58;;;10.65;;
35993;SDS011;22066;54.274;18.578;2022-09-27T10:30:56;18.30;;;10.43;;
35993;SDS011;22066;54.274;18.578;2022-09-27T10:33:22;17.77;;;9.95;;
35993;SDS011;22066;54.274;18.578;2022-09-27T10:35:49;17.77;;;10.25;;
35993;SDS011;22066;54.274;18.578;2022-09-27T10:40:41;17.17;;;11.20;;
35993;SDS011;22066;54.274;18.578;2022-09-27T10:43:24;16.55;;;9.98;;
35993;SDS011;22066;54.274;18.578;2022-09-27T10:45:57;17.70;;;10.68;;
35993;SDS011;22066;54.274;18.578;2022-09-27T10:48:24;16.63;;;10.13;;
35993;SDS011;22066;54.274;18.578;2022-09-27T10:51:00;16.88;;;9.77;;
35993;SDS011;22066;54.274;18.578;2022-09-27T10:53:33;16.33;;;10.10;;
35993;SDS011;22066;54.274;18.578;2022-09-27T10:56:01;16.33;;;9.90;;
35993;SDS011;22066;54.274;18.578;2022-09-27T10:58:31;18.80;;;10.93;;
35993;SDS011;22066;54.274;18.578;2022-09-27T11:00:59;20.35;;;11.80;;
35993;SDS011;22066;54.274;18.578;2022-09-27T11:03:28;17.23;;;9.82;;
35993;SDS011;22066;54.274;18.578;2022-09-27T11:05:54;17.50;;;10.10;;
35993;SDS011;22066;54.274;18.578;2022-09-27T11:08:27;20.60;;;11.38;;
35993;SDS011;22066;54.274;18.578;2022-09-27T11:11:01;18.02;;;10.98;;
35993;SDS011;22066;54.274;18.578;2022-09-27T11:13:28;20.10;;;11.25;;
35993;SDS011;22066;54.274;18.578;2022-09-27T11:21:05;18.38;;;10.90;;
35993;SDS011;22066;54.274;18.578;2022-09-27T11:34:38;18.33;;;9.50;;
35993;SDS011;22066;54.274;18.578;2022-09-27T11:39:31;14.02;;;8.85;;
35993;SDS011;22066;54.274;18.578;2022-09-27T11:49:38;13.98;;;7.22;;
35993;SDS011;22066;54.274;18.578;2022-09-27T12:00:02;11.13;;;7.47;;
35993;SDS011;22066;54.274;18.578;2022-09-27T12:02:42;15.98;;;7.75;;
35993;SDS011;22066;54.274;18.578;2022-09-27T12:05:35;15.10;;;8.80;;
35993;SDS011;22066;54.274;18.578;2022-09-27T12:10:30;18.02;;;10.15;;
35993;SDS011;22066;54.274;18.578;2022-09-27T12:12:56;18.50;;;10.23;;
35993;SDS011;22066;54.274;18.578;2022-09-27T12:15:24;18.15;;;10.85;;
35993;SDS011;22066;54.274;18.578;2022-09-27T12:17:55;16.40;;;9.68;;
35993;SDS011;22066;54.274;18.578;2022-09-27T12:20:26;17.15;;;10.25;;
35993;SDS011;22066;54.274;18.578;2022-09-27T12:22:56;17.42;;;10.95;;
35993;SDS011;22066;54.274;18.578;2022-09-27T12:25:24;16.60;;;9.55;;
35993;SDS011;22066;54.274;18.578;2022-09-27T12:28:00;19.48;;;12.00;;
35993;SDS011;22066;54.274;18.578;2022-09-27T12:30:28;20.13;;;11.10;;
35993;SDS011;22066;54.274;18.578;2022-09-27T12:33:07;23.50;;;11.97;;
35993;SDS011;22066;54.274;18.578;2022-09-27T12:35:41;23.15;;;12.02;;
35993;SDS011;22066;54.274;18.578;2022-09-27T12:38:11;17.58;;;10.23;;
35993;SDS011;22066;54.274;18.578;2022-09-27T12:40:56;19.17;;;12.57;;
35993;SDS011;22066;54.274;18.578;2022-09-27T12:43:27;23.85;;;13.07;;
35993;SDS011;22066;54.274;18.578;2022-09-27T13:11:38;22.73;;;12.48;;
35993;SDS011;22066;54.274;18.578;2022-09-27T13:14:09;17.58;;;10.77;;
35993;SDS011;22066;54.274;18.578;2022-09-27T13:16:41;19.15;;;11.90;;
35993;SDS011;22066;54.274;18.578;2022-09-27T13:19:21;19.48;;;11.73;;
35993;SDS011;22066;54.274;18.578;2022-09-27T13:21:55;23.02;;;12.35;;
35993;SDS011;22066;54.274;18.578;2022-09-27T13:27:51;16.83;;;10.68;;
35993;SDS011;22066;54.274;18.578;2022-09-27T13:30:41;15.77;;;11.15;;
35993;SDS011;22066;54.274;18.578;2022-09-27T13:35:27;20.77;;;11.57;;
35993;SDS011;22066;54.274;18.578;2022-09-27T13:40:27;21.88;;;12.55;;
35993;SDS011;22066;54.274;18.578;2022-09-27T13:45:39;20.80;;;11.93;;
35993;SDS011;22066;54.274;18.578;2022-09-27T13:48:19;18.88;;;11.70;;
35993;SDS011;22066;54.274;18.578;2022-09-27T13:50:49;18.50;;;10.80;;
35993;SDS011;22066;54.274;18.578;2022-09-27T13:55:46;21.83;;;11.32;;
35993;SDS011;22066;54.274;18.578;2022-09-27T14:00:49;18.23;;;10.52;;
35993;SDS011;22066;54.274;18.578;2022-09-27T14:05:55;17.55;;;10.65;;
35993;SDS011;22066;54.274;18.578;2022-09-27T14:08:33;19.77;;;11.48;;
35993;SDS011;22066;54.274;18.578;2022-09-27T14:11:01;18.65;;;11.48;;
35993;SDS011;22066;54.274;18.578;2022-09-27T14:13:27;16.58;;;10.88;;
35993;SDS011;22066;54.274;18.578;2022-09-27T14:16:02;20.42;;;11.48;;
35993;SDS011;22066;54.274;18.578;2022-09-27T14:18:28;18.77;;;11.82;;
35993;SDS011;22066;54.274;18.578;2022-09-27T14:21:06;19.80;;;11.68;;
35993;SDS011;22066;54.274;18.578;2022-09-27T14:23:33;23.17;;;13.68;;
35993;SDS011;22066;54.274;18.578;2022-09-27T14:25:59;21.73;;;12.35;;
35993;SDS011;22066;54.274;18.578;2022-09-27T14:28:26;22.20;;;12.32;;
35993;SDS011;22066;54.274;18.578;2022-09-27T14:33:37;21.02;;;12.25;;
35993;SDS011;22066;54.274;18.578;2022-09-27T14:36:06;22.02;;;12.85;;
35993;SDS011;22066;54.274;18.578;2022-09-27T14:38:52;23.52;;;13.25;;
35993;SDS011;22066;54.274;18.578;2022-09-27T14:41:22;19.75;;;11.32;;
35993;SDS011;22066;54.274;18.578;2022-09-27T14:43:48;20.30;;;12.50;;
35993;SDS011;22066;54.274;18.578;2022-09-27T14:48:50;17.48;;;11.00;;
35993;SDS011;22066;54.274;18.578;2022-09-27T14:51:18;20.55;;;12.50;;
35993;SDS011;22066;54.274;18.578;2022-09-27T14:53:46;17.40;;;11.90;;
35993;SDS011;22066;54.274;18.578;2022-09-27T14:56:16;22.10;;;13.18;;
35993;SDS011;22066;54.274;18.578;2022-09-27T14:58:43;20.65;;;12.77;;
35993;SDS011;22066;54.274;18.578;2022-09-27T15:01:16;20.50;;;12.27;;
35993;SDS011;22066;54.274;18.578;2022-09-27T15:03:44;21.92;;;12.32;;
35993;SDS011;22066;54.274;18.578;2022-09-27T15:06:12;23.05;;;14.23;;
35993;SDS011;22066;54.274;18.578;2022-09-27T15:08:39;21.15;;;12.25;;
35993;SDS011;22066;54.274;18.578;2022-09-27T15:11:05;20.20;;;11.93;;
35993;SDS011;22066;54.274;18.578;2022-09-27T15:13:34;24.90;;;12.85;;
35993;SDS011;22066;54.274;18.578;2022-09-27T15:16:05;20.45;;;12.80;;
35993;SDS011;22066;54.274;18.578;2022-09-27T15:18:40;21.42;;;12.27;;
35993;SDS011;22066;54.274;18.578;2022-09-27T15:21:10;22.75;;;13.93;;
35993;SDS011;22066;54.274;18.578;2022-09-27T15:23:38;28.33;;;15.05;;
35993;SDS011;22066;54.274;18.578;2022-09-27T15:26:10;25.55;;;15.20;;
35993;SDS011;22066;54.274;18.578;2022-09-27T15:28:36;26.42;;;14.60;;
35993;SDS011;22066;54.274;18.578;2022-09-27T15:31:06;22.92;;;14.60;;
35993;SDS011;22066;54.274;18.578;2022-09-27T15:33:33;30.40;;;15.55;;
35993;SDS011;22066;54.274;18.578;2022-09-27T15:36:03;28.33;;;14.88;;
35993;SDS011;22066;54.274;18.578;2022-09-27T15:40:58;23.77;;;13.88;;
35993;SDS011;22066;54.274;18.578;2022-09-27T15:43:31;28.05;;;14.63;;
35993;SDS011;22066;54.274;18.578;2022-09-27T15:45:59;25.83;;;14.23;;
35993;SDS011;22066;54.274;18.578;2022-09-27T15:48:27;26.00;;;14.02;;
35993;SDS011;22066;54.274;18.578;2022-09-27T15:50:54;25.65;;;13.73;;
35993;SDS011;22066;54.274;18.578;2022-09-27T15:55:58;25.27;;;15.10;;
35993;SDS011;22066;54.274;18.578;2022-09-27T15:58:24;27.45;;;15.75;;
35993;SDS011;22066;54.274;18.578;2022-09-27T16:00:54;27.40;;;15.07;;
35993;SDS011;22066;54.274;18.578;2022-09-27T16:03:21;25.90;;;14.57;;
35993;SDS011;22066;54.274;18.578;2022-09-27T16:05:47;27.83;;;14.73;;
35993;SDS011;22066;54.274;18.578;2022-09-27T16:08:13;25.27;;;14.82;;
35993;SDS011;22066;54.274;18.578;2022-09-27T16:10:50;23.75;;;14.65;;
35993;SDS011;22066;54.274;18.578;2022-09-27T16:13:16;22.95;;;14.65;;
35993;SDS011;22066;54.274;18.578;2022-09-27T16:15:43;23.25;;;14.80;;
35993;SDS011;22066;54.274;18.578;2022-09-27T16:18:09;27.50;;;14.38;;
35993;SDS011;22066;54.274;18.578;2022-09-27T16:20:35;24.05;;;12.48;;
35993;SDS011;22066;54.274;18.578;2022-09-27T16:23:02;22.50;;;14.60;;
35993;SDS011;22066;54.274;18.578;2022-09-27T16:25:34;24.48;;;14.10;;
35993;SDS011;22066;54.274;18.578;2022-09-27T16:28:02;58.50;;;25.33;;
35993;SDS011;22066;54.274;18.578;2022-09-27T16:30:29;64.82;;;28.10;;
35993;SDS011;22066;54.274;18.578;2022-09-27T16:32:55;37.78;;;17.42;;
35993;SDS011;22066;54.274;18.578;2022-09-27T16:35:22;24.48;;;15.02;;
35993;SDS011;22066;54.274;18.578;2022-09-27T16:37:49;26.13;;;12.70;;
35993;SDS011;22066;54.274;18.578;2022-09-27T16:40:15;29.15;;;14.20;;
35993;SDS011;22066;54.274;18.578;2022-09-27T16:42:46;24.77;;;13.70;;
35993;SDS011;22066;54.274;18.578;2022-09-27T16:45:12;24.75;;;14.60;;
35993;SDS011;22066;54.274;18.578;2022-09-27T16:47:40;24.52;;;13.52;;
35993;SDS011;22066;54.274;18.578;2022-09-27T16:50:06;30.95;;;16.60;;
35993;SDS011;22066;54.274;18.578;2022-09-27T16:52:51;23.70;;;13.88;;
35993;SDS011;22066;54.274;18.578;2022-09-27T16:55:19;26.35;;;13.43;;
35993;SDS011;22066;54.274;18.578;2022-09-27T16:57:49;29.20;;;16.33;;
35993;SDS011;22066;54.274;18.578;2022-09-27T17:00:15;42.92;;;24.17;;
35993;SDS011;22066;54.274;18.578;2022-09-27T17:02:42;55.20;;;28.42;;
35993;SDS011;22066;54.274;18.578;2022-09-27T17:05:11;33.47;;;17.92;;
35993;SDS011;22066;54.274;18.578;2022-09-27T17:07:37;34.38;;;20.15;;
35993;SDS011;22066;54.274;18.578;2022-09-27T17:10:03;30.42;;;16.23;;
35993;SDS011;22066;54.274;18.578;2022-09-27T17:12:30;28.27;;;15.90;;
35993;SDS011;22066;54.274;18.578;2022-09-27T17:14:56;28.02;;;16.45;;
35993;SDS011;22066;54.274;18.578;2022-09-27T17:17:22;24.73;;;14.82;;
35993;SDS011;22066;54.274;18.578;2022-09-27T17:19:49;32.88;;;20.45;;
35993;SDS011;22066;54.274;18.578;2022-09-27T17:22:15;28.58;;;16.10;;
35993;SDS011;22066;54.274;18.578;2022-09-27T17:24:41;26.85;;;16.90;;